createdAt,value
2019-04-21T00:01:12.668Z,61.58
2019-04-21T05:34:04.107Z,69.68
2019-04-21T05:36:53.922Z,69.74
2019-04-21T05:39:41.944Z,69.22
2019-04-21T05:42:08.137Z,68.91
2019-04-21T05:44:58.784Z,68.62
2019-04-21T05:50:07.772Z,68.24
2019-04-21T05:52:47.398Z,68.86
2019-04-21T05:55:33.409Z,68.44
2019-04-21T05:57:58.514Z,68.14
2019-04-21T06:00:55.864Z,67.43
2019-04-21T06:03:09.952Z,67.44
2019-04-21T06:05:42.516Z,66.74
2019-04-21T06:08:15.789Z,65.51
2019-04-21T06:10:47.323Z,65.35
2019-04-21T06:13:18.723Z,64.92
2019-04-21T06:18:28.893Z,63.21
2019-04-21T06:20:58.019Z,63.02
2019-04-21T06:23:26.484Z,63.23
2019-04-21T06:26:28.179Z,63.19
2019-04-21T06:28:38.960Z,62.75
2019-04-21T06:31:27.176Z,62.98
2019-04-21T06:36:31.771Z,62.62
2019-04-21T06:39:08.683Z,61.60
2019-04-21T06:44:08.195Z,61.39
2019-04-21T06:46:37.982Z,61.27
2019-04-21T06:49:06.773Z,60.37
2019-04-21T06:51:37.155Z,59.73
2019-04-21T06:54:30.612Z,59.32
2019-04-21T06:56:48.366Z,58.77
2019-04-21T06:59:16.421Z,58.16
2019-04-21T07:01:55.281Z,57.53
2019-04-21T07:04:36.525Z,56.54
2019-04-21T07:06:57.484Z,56.79
2019-04-21T07:09:43.524Z,57.43
2019-04-21T07:11:59.784Z,57.29
2019-04-21T07:14:34.642Z,57.58
2019-04-21T07:17:15.645Z,57.14
2019-04-21T07:19:41.021Z,57.18
2019-04-21T07:22:11.123Z,56.39
2019-04-21T07:24:46.125Z,56.85
2019-04-21T07:27:15.198Z,56.36
2019-04-21T07:29:50.602Z,56.57
2019-04-21T07:32:15.319Z,56.96
2019-04-21T07:34:51.813Z,56.39
2019-04-21T07:37:23.827Z,55.47
2019-04-21T07:39:53.180Z,55.82
2019-04-21T07:42:24.374Z,54.65
2019-04-21T07:44:54.707Z,55.04
2019-04-21T07:47:47.757Z,56.15
2019-04-21T07:50:24.862Z,54.31
2019-04-21T07:53:07.634Z,53.99
2019-04-21T07:58:12.880Z,53.98
2019-04-21T08:03:15.400Z,53.54
2019-04-21T08:05:52.676Z,52.91
2019-04-21T08:08:19.073Z,52.96
2019-04-21T08:10:52.331Z,52.34
2019-04-21T08:13:34.271Z,51.38
2019-04-21T08:16:02.112Z,51.24
2019-04-21T08:18:28.679Z,50.26
2019-04-21T08:21:02.711Z,50.78
2019-04-21T08:23:34.047Z,50.58
2019-04-21T08:26:04.750Z,50.38
2019-04-21T08:28:43.759Z,49.97
2019-04-21T08:31:10.313Z,50.62
2019-04-21T08:33:51.402Z,50.64
2019-04-21T08:36:28.051Z,51.23
2019-04-21T08:38:51.474Z,50.91
2019-04-21T08:41:18.823Z,51.11
2019-04-21T08:43:55.042Z,50.83
2019-04-21T08:46:27.291Z,48.79
2019-04-21T08:48:57.945Z,48.13
2019-04-21T08:54:07.487Z,50.64
2019-04-21T08:57:04.065Z,49.28
2019-04-21T09:00:01.363Z,48.66
2019-04-21T09:02:47.347Z,49.38
2019-04-21T09:05:17.544Z,47.92
2019-04-21T09:07:55.277Z,47.47
2019-04-21T09:10:22.019Z,48.32
2019-04-21T09:12:52.257Z,46.48
2019-04-21T09:15:27.738Z,46.87
2019-04-21T09:17:54.995Z,45.59
2019-04-21T09:20:33.284Z,44.63
2019-04-21T09:23:06.407Z,43.69
2019-04-21T09:25:43.248Z,44.72
2019-04-21T09:28:07.056Z,43.91
2019-04-21T09:30:22.021Z,41.45
2019-04-21T09:32:56.382Z,40.75
2019-04-21T09:35:47.476Z,43.22
2019-04-21T09:38:22.725Z,43.52
2019-04-21T09:40:49.034Z,44.66
2019-04-21T09:43:27.038Z,43.47
2019-04-21T09:45:49.622Z,44.64
2019-04-21T09:48:22.873Z,43.77
2019-04-21T09:50:53.013Z,43.07
2019-04-21T09:53:31.243Z,44.92
2019-04-21T09:56:00.961Z,42.85
2019-04-21T09:58:34.714Z,42.70
2019-04-21T10:01:12.260Z,41.55
2019-04-21T10:03:41.232Z,42.84
2019-04-21T10:06:04.842Z,40.43
2019-04-21T10:08:36.392Z,41.67
2019-04-21T10:11:07.756Z,38.72
2019-04-21T10:13:39.772Z,39.28
2019-04-21T10:16:28.265Z,40.49
2019-04-21T10:18:58.914Z,41.29
2019-04-21T10:21:29.516Z,40.12
2019-04-21T10:23:59.995Z,38.25
2019-04-21T10:26:30.571Z,38.54
2019-04-21T10:29:08.130Z,39.58
2019-04-21T10:31:34.543Z,37.57
2019-04-21T10:34:05.343Z,38.74
2019-04-21T10:36:36.946Z,35.56
2019-04-21T10:39:09.391Z,37.91
2019-04-21T10:41:41.415Z,37.16
2019-04-21T10:44:13.467Z,36.05
2019-04-21T10:46:46.925Z,33.95
2019-04-21T10:49:17.063Z,35.31
2019-04-21T10:51:48.805Z,32.27
2019-04-21T10:54:20.083Z,33.18
2019-04-21T10:56:50.920Z,34.34
2019-04-21T10:59:23.109Z,34.72
2019-04-21T11:01:54.812Z,31.06
2019-04-21T11:04:33.695Z,34.55
2019-04-21T11:07:08.777Z,35.68
2019-04-21T11:09:36.197Z,36.13
2019-04-21T11:12:08.148Z,33.63
2019-04-21T11:14:38.995Z,34.46
2019-04-21T11:17:10.173Z,33.82
2019-04-21T11:19:41.110Z,31.06
2019-04-21T11:22:12.677Z,31.63
2019-04-21T11:24:43.338Z,31.23
2019-04-21T11:27:14.988Z,32.69
2019-04-21T11:29:45.589Z,33.59
2019-04-21T11:32:16.850Z,31.34
2019-04-21T11:34:47.374Z,31.23
2019-04-21T11:37:19.952Z,30.33
2019-04-21T11:39:59.299Z,29.57
2019-04-21T11:42:33.693Z,31.75
2019-04-21T11:45:06.226Z,31.86
2019-04-21T11:47:42.691Z,31.70
2019-04-21T11:50:14.884Z,31.05
2019-04-21T11:52:45.439Z,31.83
2019-04-21T11:55:16.587Z,29.27
2019-04-21T11:57:49.762Z,31.27
2019-04-21T12:00:19.860Z,29.17
2019-04-21T12:02:51.180Z,29.78
2019-04-21T12:05:23.516Z,30.97
2019-04-21T12:07:58.234Z,29.41
2019-04-21T12:10:27.143Z,29.69
2019-04-21T12:12:57.666Z,28.72
2019-04-21T12:15:29.168Z,31.19
2019-04-21T12:18:01.662Z,30.75
2019-04-21T12:20:33.440Z,27.97
2019-04-21T12:23:04.645Z,30.12
2019-04-21T12:25:39.015Z,27.38
2019-04-21T12:28:10.048Z,28.39
2019-04-21T12:30:41.931Z,29.76
2019-04-21T12:33:43.820Z,25.67
2019-04-21T12:36:15.834Z,22.65
2019-04-21T12:38:50.880Z,19.66
2019-04-21T12:41:18.778Z,17.41
2019-04-21T12:43:50.476Z,15.40
2019-04-21T12:46:22.101Z,15.61
2019-04-21T12:48:53.738Z,15.29
2019-04-21T12:51:25.858Z,16.21
2019-04-21T12:53:57.426Z,16.17
2019-04-21T12:56:29.208Z,16.52
2019-04-21T12:59:00.008Z,15.42
2019-04-21T13:01:30.781Z,15.33
2019-04-21T13:04:01.815Z,15.79
2019-04-21T13:06:33.761Z,15.94
2019-04-21T13:09:10.416Z,14.63
2019-04-21T13:11:37.590Z,14.17
2019-04-21T13:14:08.290Z,14.10
2019-04-21T13:16:39.681Z,14.60
2019-04-21T13:19:11.372Z,15.38
2019-04-21T13:21:42.384Z,15.35
2019-04-21T13:24:13.750Z,14.42
2019-04-21T13:26:51.131Z,14.94
2019-04-21T13:29:16.661Z,14.30
2019-04-21T13:31:48.115Z,14.14
2019-04-21T13:34:20.009Z,14.82
2019-04-21T13:36:51.780Z,15.45
2019-04-21T13:40:18.177Z,15.11
2019-04-21T13:42:35.731Z,15.68
2019-04-21T13:45:02.179Z,14.65
2019-04-21T13:47:32.378Z,15.39
2019-04-21T13:50:06.332Z,14.21
2019-04-21T13:52:36.535Z,13.56
2019-04-21T13:55:07.808Z,13.42
2019-04-21T13:57:38.819Z,15.45
2019-04-21T14:00:11.001Z,15.58
2019-04-21T14:02:42.666Z,16.79
2019-04-21T14:05:15.825Z,15.26
2019-04-21T14:07:46.438Z,14.35
2019-04-21T14:10:18.051Z,13.71
2019-04-21T14:12:48.948Z,14.64
2019-04-21T14:15:20.333Z,14.27
2019-04-21T14:17:50.988Z,14.21
2019-04-21T14:20:21.729Z,14.92
2019-04-21T14:22:52.289Z,14.18
2019-04-21T14:25:23.893Z,13.89
2019-04-21T14:27:56.072Z,15.49
2019-04-21T14:30:28.417Z,13.27
2019-04-21T14:33:00.295Z,13.65
2019-04-21T14:35:30.949Z,14.44
2019-04-21T14:38:02.718Z,14.41
2019-04-21T14:40:35.062Z,15.22
2019-04-21T14:43:05.945Z,15.34
2019-04-21T14:45:54.748Z,15.17
2019-04-21T14:48:43.176Z,15.63
2019-04-21T14:51:31.658Z,15.17
2019-04-21T14:54:08.316Z,14.65
2019-04-21T14:56:39.650Z,15.41
2019-04-21T14:59:10.979Z,16.31
2019-04-21T15:01:41.954Z,16.54
2019-04-21T15:04:15.333Z,16.88
2019-04-21T15:06:45.524Z,17.76
2019-04-21T15:09:16.204Z,15.55
2019-04-21T15:11:47.695Z,16.49
2019-04-21T15:14:19.991Z,15.35
2019-04-21T15:16:51.260Z,14.56
2019-04-21T15:19:22.421Z,15.90
2019-04-21T15:21:54.280Z,15.43
2019-04-21T15:24:26.522Z,15.79
2019-04-21T15:26:57.129Z,15.38
2019-04-21T15:29:28.803Z,14.43
2019-04-21T15:32:00.872Z,15.23
2019-04-21T15:34:31.949Z,15.29
2019-04-21T15:37:03.998Z,15.96
2019-04-21T15:39:34.614Z,16.21
2019-04-21T15:42:06.227Z,15.37
2019-04-21T15:44:36.828Z,16.32
2019-04-21T15:47:08.202Z,15.77
2019-04-21T15:50:04.665Z,16.12
2019-04-21T15:52:30.013Z,16.02
2019-04-21T15:55:34.937Z,16.06
2019-04-21T15:58:14.577Z,16.29
2019-04-21T16:00:54.423Z,15.40
2019-04-21T16:03:25.001Z,16.63
2019-04-21T16:05:55.803Z,17.65
2019-04-21T16:08:27.080Z,16.67
2019-04-21T16:11:00.753Z,17.97
2019-04-21T16:13:29.998Z,17.47
2019-04-21T16:16:00.533Z,16.60
2019-04-21T16:18:32.178Z,17.41
2019-04-21T16:21:04.269Z,17.54
2019-04-21T16:23:36.649Z,17.68
2019-04-21T16:26:08.626Z,16.96
2019-04-21T16:28:39.613Z,16.53
2019-04-21T16:31:10.245Z,19.93
2019-04-21T16:33:41.085Z,20.62
2019-04-21T16:36:13.235Z,21.14
2019-04-21T16:38:43.887Z,21.52
2019-04-21T16:41:14.391Z,22.21
2019-04-21T16:43:45.054Z,23.17
2019-04-21T16:46:15.823Z,22.72
2019-04-21T16:48:46.373Z,23.46
2019-04-21T16:51:18.065Z,24.05
2019-04-21T16:53:57.703Z,23.68
2019-04-21T16:56:57.534Z,23.98
2019-04-21T16:59:34.717Z,24.95
2019-04-21T17:02:06.932Z,24.65
2019-04-21T17:04:38.234Z,25.88
2019-04-21T17:07:09.205Z,27.01
2019-04-21T17:09:40.931Z,25.82
2019-04-21T17:12:14.284Z,26.40
2019-04-21T17:14:57.102Z,27.28
2019-04-21T17:17:38.114Z,26.53
2019-04-21T17:19:51.221Z,27.20
2019-04-21T17:22:19.714Z,27.97
2019-04-21T17:24:50.431Z,30.44
2019-04-21T17:27:20.832Z,31.95
2019-04-21T17:29:50.646Z,33.53
2019-04-21T17:32:27.273Z,33.63
2019-04-21T17:34:54.109Z,34.00
2019-04-21T17:37:26.818Z,35.53
2019-04-21T17:39:58.745Z,35.76
2019-04-21T17:42:36.396Z,36.84
2019-04-21T17:45:03.519Z,37.80
2019-04-21T17:47:45.741Z,39.31
2019-04-21T17:50:19.595Z,38.11
2019-04-21T17:53:00.900Z,38.96
2019-04-21T17:55:31.592Z,40.49
2019-04-21T17:58:14.870Z,40.49
2019-04-21T18:01:12.841Z,41.12
2019-04-21T18:03:40.758Z,39.83
2019-04-21T18:05:59.462Z,40.43
2019-04-21T18:08:38.661Z,41.13
2019-04-21T18:11:00.277Z,41.13
2019-04-21T18:13:23.460Z,41.83
2019-04-21T18:16:06.084Z,41.70
2019-04-21T18:18:26.525Z,42.29
2019-04-21T18:21:02.878Z,42.32
2019-04-21T18:23:46.868Z,42.64
2019-04-21T18:26:25.968Z,42.09
2019-04-21T18:28:44.368Z,42.71
2019-04-21T18:31:16.397Z,43.61
2019-04-21T18:34:08.542Z,43.11
2019-04-21T18:37:05.505Z,44.29
2019-04-21T18:40:05.795Z,43.51
2019-04-21T18:42:47.181Z,45.11
2019-04-21T18:45:48.072Z,45.26
2019-04-21T18:48:22.161Z,45.44
2019-04-21T18:50:57.032Z,45.19
2019-04-21T18:54:06.279Z,45.52
2019-04-21T18:56:20.620Z,46.40
2019-04-21T18:58:50.943Z,45.68
2019-04-21T19:01:27.733Z,46.30
2019-04-21T19:03:56.131Z,46.39
2019-04-21T19:06:43.891Z,46.72
2019-04-21T19:09:19.590Z,45.99
2019-04-21T19:11:48.209Z,46.84
2019-04-21T19:17:10.747Z,47.42
2019-04-21T19:22:04.391Z,47.35
2019-04-21T19:24:38.863Z,47.02
2019-04-21T19:27:14.379Z,47.65
2019-04-21T19:29:42.754Z,47.51
2019-04-21T19:32:16.572Z,47.78
2019-04-21T19:34:33.718Z,48.15
2019-04-21T19:37:08.678Z,47.77
2019-04-21T19:39:42.813Z,48.55
2019-04-21T19:42:18.584Z,48.00
2019-04-21T19:44:52.139Z,48.42
2019-04-21T19:47:27.865Z,49.06
2019-04-21T19:50:00.250Z,48.86
2019-04-21T19:52:26.526Z,48.30
2019-04-21T19:54:50.014Z,48.68
2019-04-21T19:57:18.772Z,48.93
2019-04-21T19:59:54.963Z,49.12
2019-04-21T20:02:22.418Z,49.01
2019-04-21T20:05:01.497Z,49.37
2019-04-21T20:07:41.533Z,49.83
2019-04-21T20:10:22.633Z,50.22
2019-04-21T20:12:47.493Z,49.90
2019-04-21T20:15:26.132Z,51.00
2019-04-21T20:17:50.179Z,50.44
2019-04-21T20:20:08.945Z,51.02
2019-04-21T20:22:43.595Z,50.84
2019-04-21T20:25:17.227Z,50.98
2019-04-21T20:27:56.796Z,51.06
2019-04-21T20:30:39.797Z,50.51
2019-04-21T20:33:31.874Z,50.70
2019-04-21T20:35:44.856Z,51.48
2019-04-21T20:38:06.459Z,50.77
2019-04-21T20:40:35.642Z,51.46
2019-04-21T20:43:19.315Z,51.87
2019-04-21T20:45:55.653Z,52.09
2019-04-21T20:48:13.862Z,52.53
2019-04-21T20:50:57.369Z,52.43
2019-04-21T20:53:25.999Z,52.74
2019-04-21T20:55:52.775Z,52.79
2019-04-21T20:58:28.398Z,53.04
2019-04-21T21:01:20.924Z,53.10
2019-04-21T21:03:35.305Z,53.25
2019-04-21T21:06:02.424Z,53.12
2019-04-21T21:08:40.022Z,53.10
2019-04-21T21:11:08.160Z,53.37
2019-04-21T21:13:49.059Z,53.54
2019-04-21T21:16:19.964Z,54.31
2019-04-21T21:21:20.728Z,53.66
2019-04-21T21:23:53.067Z,54.43
2019-04-21T21:26:26.892Z,54.79
2019-04-21T21:28:52.513Z,54.92
2019-04-21T21:31:30.747Z,55.03
2019-04-21T21:34:25.728Z,54.85
2019-04-21T21:36:36.543Z,55.70
2019-04-21T21:39:09.141Z,55.76
2019-04-21T21:41:31.369Z,56.26
2019-04-21T21:44:03.947Z,56.09
2019-04-21T21:46:42.721Z,56.14
2019-04-21T21:49:07.466Z,56.27
2019-04-21T21:51:45.067Z,56.31
2019-04-21T21:54:04.785Z,56.22
2019-04-21T21:56:36.528Z,56.45
2019-04-21T21:59:15.989Z,56.31
2019-04-21T22:01:45.739Z,56.76
2019-04-21T22:04:18.939Z,56.76
2019-04-21T22:06:50.677Z,56.68
2019-04-21T22:09:16.886Z,57.10
2019-04-21T22:11:49.556Z,56.57
2019-04-21T22:14:25.858Z,56.43
2019-04-21T22:17:10.642Z,57.00
2019-04-21T22:19:42.837Z,56.47
2019-04-21T22:22:13.999Z,56.05
2019-04-21T22:24:48.112Z,56.45
2019-04-21T22:27:01.183Z,56.55
2019-04-21T22:29:36.335Z,56.75
2019-04-21T22:32:11.426Z,56.95
2019-04-21T22:34:46.445Z,56.85
2019-04-21T22:37:26.216Z,56.55
2019-04-21T22:39:53.333Z,56.65
2019-04-21T22:42:21.116Z,56.51
2019-04-21T22:44:46.245Z,56.94
2019-04-21T22:47:23.696Z,57.01
2019-04-21T22:49:50.517Z,57.34
2019-04-21T22:52:25.858Z,57.34
2019-04-21T22:54:54.162Z,57.67
2019-04-21T22:57:28.904Z,57.57
2019-04-21T23:00:03.091Z,58.20
2019-04-21T23:02:33.307Z,58.36
2019-04-21T23:05:03.988Z,58.24
2019-04-21T23:07:44.155Z,57.93
2019-04-21T23:10:07.452Z,58.65
2019-04-21T23:12:40.813Z,58.65
2019-04-21T23:15:15.322Z,58.71
2019-04-21T23:17:59.303Z,59.23
2019-04-21T23:20:31.557Z,58.18
2019-04-21T23:23:11.794Z,58.82
2019-04-21T23:25:39.222Z,58.71
2019-04-21T23:28:09.129Z,58.80
2019-04-21T23:30:50.278Z,58.86
2019-04-21T23:33:04.561Z,59.26
2019-04-21T23:35:36.358Z,58.75
2019-04-21T23:38:05.340Z,59.11
2019-04-21T23:40:35.184Z,60.00
2019-04-21T23:43:09.587Z,59.74
2019-04-21T23:45:41.280Z,59.94
2019-04-21T23:48:21.712Z,59.96
2019-04-21T23:50:51.466Z,60.37
2019-04-21T23:53:15.438Z,60.73
2019-04-21T23:55:47.326Z,60.87
2019-04-21T23:58:25.083Z,61.06
